Terminal Aerodrome Forecast
Issued by NWS

Home | Current Version | Previous Version | Text Only | Print | Product List | Glossary On
Versions: 1 2 3 4 5 6 7 8 9 10 11 12 13 14 15 16
000
FTUS42 KTBW 230959 AAA
TAFPGD
TAF AMD
KPGD 230959Z 2310/2406 09004KT 6SM BR SCT010 BKN150
      TEMPO 2310/2312 5SM SHRA BKN025
     FM231400 15006KT P6SM VCSH SCT025 BKN150
     FM231700 23009KT P6SM VCSH SCT035 BKN100
     FM232200 24007KT 6SM SHRA VCTS SCT020CB BKN035
     FM240200 16004KT P6SM VCSH SCT020 OVC035=

USA.gov is the U.S. government's official web portal to all federal, state and local government web resources and services.